sensor_id;sensor_type;location;lat;lon;timestamp;pressure;altitude;pressure_sealevel;temperature;humidity
5609;BME280;2826;51.354;9.588;2023-02-13T00:01:06;100258.94;;;7.23;97.23
5609;BME280;2826;51.354;9.588;2023-02-13T00:03:33;100264.97;;;7.25;97.11
5609;BME280;2826;51.354;9.588;2023-02-13T00:06:00;100227.84;;;7.05;97.12
5609;BME280;2826;51.354;9.588;2023-02-13T00:08:27;100261.53;;;7.23;97.12
5609;BME280;2826;51.354;9.588;2023-02-13T00:10:54;100259.81;;;7.23;97.13
5609;BME280;2826;51.354;9.588;2023-02-13T00:13:20;100261.53;;;7.23;97.48
5609;BME280;2826;51.354;9.588;2023-02-13T00:15:55;100258.09;;;7.21;97.32
5609;BME280;2826;51.354;9.588;2023-02-13T00:18:22;100260.66;;;7.22;97.03
5609;BME280;2826;51.354;9.588;2023-02-13T00:20:56;100254.59;;;7.17;97.09
5609;BME280;2826;51.354;9.588;2023-02-13T00:23:23;100257.25;;;7.23;97.29
5609;BME280;2826;51.354;9.588;2023-02-13T00:25:49;100259.81;;;7.23;96.85
5609;BME280;2826;51.354;9.588;2023-02-13T00:28:16;100257.25;;;7.23;96.84
5609;BME280;2826;51.354;9.588;2023-02-13T00:30:43;100264.09;;;7.23;97.30
5609;BME280;2826;51.354;9.588;2023-02-13T00:33:11;100258.06;;;7.22;97.06
5609;BME280;2826;51.354;9.588;2023-02-13T00:35:40;100253.78;;;7.23;97.06
5609;BME280;2826;51.354;9.588;2023-02-13T00:38:06;100257.22;;;7.22;97.37
5609;BME280;2826;51.354;9.588;2023-02-13T00:40:34;100254.66;;;7.22;96.92
5609;BME280;2826;51.354;9.588;2023-02-13T00:43:00;100254.66;;;7.22;97.24
5609;BME280;2826;51.354;9.588;2023-02-13T00:45:27;100252.03;;;7.20;97.00
5609;BME280;2826;51.354;9.588;2023-02-13T00:47:54;100252.91;;;7.19;97.15
5609;BME280;2826;51.354;9.588;2023-02-13T00:50:22;100258.91;;;7.19;97.29
5609;BME280;2826;51.354;9.588;2023-02-13T00:52:49;100251.19;;;7.21;97.29
5609;BME280;2826;51.354;9.588;2023-02-13T00:55:15;100257.19;;;7.20;96.93
5609;BME280;2826;51.354;9.588;2023-02-13T00:57:42;100258.94;;;7.21;97.15
5609;BME280;2826;51.354;9.588;2023-02-13T01:00:11;100231.25;;;7.04;97.31
5609;BME280;2826;51.354;9.588;2023-02-13T01:02:40;100258.06;;;7.19;97.08
5609;BME280;2826;51.354;9.588;2023-02-13T01:05:07;100261.47;;;7.18;97.14
5609;BME280;2826;51.354;9.588;2023-02-13T01:07:35;100259.75;;;7.17;96.92
5609;BME280;2826;51.354;9.588;2023-02-13T01:10:01;100267.50;;;7.18;97.22
5609;BME280;2826;51.354;9.588;2023-02-13T01:12:28;100260.66;;;7.19;97.05
5609;BME280;2826;51.354;9.588;2023-02-13T01:14:55;100240.75;;;7.04;97.06
5609;BME280;2826;51.354;9.588;2023-02-13T01:17:22;100268.34;;;7.16;96.95
5609;BME280;2826;51.354;9.588;2023-02-13T01:19:48;100260.59;;;7.16;97.16
5609;BME280;2826;51.354;9.588;2023-02-13T01:22:15;100261.47;;;7.15;97.03
5609;BME280;2826;51.354;9.588;2023-02-13T01:24:43;100258.91;;;7.16;96.74
5609;BME280;2826;51.354;9.588;2023-02-13T01:27:09;100256.31;;;7.16;96.79
5609;BME280;2826;51.354;9.588;2023-02-13T01:29:36;100263.19;;;7.16;96.78
5609;BME280;2826;51.354;9.588;2023-02-13T01:32:02;100252.00;;;7.14;96.79
5609;BME280;2826;51.354;9.588;2023-02-13T01:34:30;100260.59;;;7.14;96.86
5609;BME280;2826;51.354;9.588;2023-02-13T01:36:56;100254.59;;;7.14;96.76
5609;BME280;2826;51.354;9.588;2023-02-13T01:39:23;100252.00;;;7.12;97.09
5609;BME280;2826;51.354;9.588;2023-02-13T01:41:51;100242.50;;;7.08;97.07
5609;BME280;2826;51.354;9.588;2023-02-13T01:44:47;100249.41;;;7.11;96.92
5609;BME280;2826;51.354;9.588;2023-02-13T01:47:18;100249.38;;;7.09;96.88
5609;BME280;2826;51.354;9.588;2023-02-13T01:49:46;100227.78;;;6.95;96.97
5609;BME280;2826;51.354;9.588;2023-02-13T01:52:15;100238.97;;;6.98;97.23
5609;BME280;2826;51.354;9.588;2023-02-13T01:54:42;100250.19;;;7.03;96.94
5609;BME280;2826;51.354;9.588;2023-02-13T01:57:13;100245.00;;;6.99;97.06
5609;BME280;2826;51.354;9.588;2023-02-13T01:59:46;100245.88;;;7.02;96.81
5609;BME280;2826;51.354;9.588;2023-02-13T02:02:14;100245.03;;;7.03;97.21
5609;BME280;2826;51.354;9.588;2023-02-13T02:04:44;100238.16;;;7.02;97.02
5609;BME280;2826;51.354;9.588;2023-02-13T02:07:19;100238.13;;;7.01;96.81
5609;BME280;2826;51.354;9.588;2023-02-13T02:09:48;100232.94;;;6.99;96.88
5609;BME280;2826;51.354;9.588;2023-02-13T02:12:22;100232.94;;;6.96;96.93
5609;BME280;2826;51.354;9.588;2023-02-13T02:14:52;100220.00;;;6.93;96.87
5609;BME280;2826;51.354;9.588;2023-02-13T02:17:21;100232.94;;;6.99;96.52
5609;BME280;2826;51.354;9.588;2023-02-13T02:19:57;100230.34;;;6.98;96.64
5609;BME280;2826;51.354;9.588;2023-02-13T02:22:54;100237.22;;;6.94;96.55
5609;BME280;2826;51.354;9.588;2023-02-13T02:25:45;100227.69;;;6.88;96.58
5609;BME280;2826;51.354;9.588;2023-02-13T02:28:28;100238.94;;;6.93;96.54
5609;BME280;2826;51.354;9.588;2023-02-13T02:31:22;100231.16;;;6.90;96.46
5609;BME280;2826;51.354;9.588;2023-02-13T02:34:06;100233.69;;;6.86;96.55
5609;BME280;2826;51.354;9.588;2023-02-13T02:36:48;100233.69;;;6.86;96.50
5609;BME280;2826;51.354;9.588;2023-02-13T02:39:25;100226.81;;;6.85;96.45
5609;BME280;2826;51.354;9.588;2023-02-13T02:42:00;100224.25;;;6.85;96.48
5609;BME280;2826;51.354;9.588;2023-02-13T02:44:38;100227.69;;;6.85;96.79
5609;BME280;2826;51.354;9.588;2023-02-13T02:47:17;100229.38;;;6.83;96.71
5609;BME280;2826;51.354;9.588;2023-02-13T02:50:14;100222.44;;;6.77;96.39
5609;BME280;2826;51.354;9.588;2023-02-13T02:52:47;100222.47;;;6.76;96.79
5609;BME280;2826;51.354;9.588;2023-02-13T02:55:27;100191.34;;;6.56;96.69
5609;BME280;2826;51.354;9.588;2023-02-13T02:58:01;100225.84;;;6.70;96.53
5609;BME280;2826;51.354;9.588;2023-02-13T03:00:49;100218.06;;;6.67;96.42
5609;BME280;2826;51.354;9.588;2023-02-13T03:03:35;100221.50;;;6.66;96.51
5609;BME280;2826;51.354;9.588;2023-02-13T03:06:24;100206.84;;;6.62;96.28
5609;BME280;2826;51.354;9.588;2023-02-13T03:08:55;100210.28;;;6.61;96.65
5609;BME280;2826;51.354;9.588;2023-02-13T03:11:43;100211.09;;;6.57;96.69
5609;BME280;2826;51.354;9.588;2023-02-13T03:14:28;100205.97;;;6.58;96.33
5609;BME280;2826;51.354;9.588;2023-02-13T03:16:57;100209.38;;;6.56;96.25
5609;BME280;2826;51.354;9.588;2023-02-13T03:19:58;100213.63;;;6.52;96.55
5609;BME280;2826;51.354;9.588;2023-02-13T03:22:59;100216.22;;;6.53;96.64
5609;BME280;2826;51.354;9.588;2023-02-13T03:25:29;100214.50;;;6.54;96.31
5609;BME280;2826;51.354;9.588;2023-02-13T03:28:07;100184.19;;;6.30;96.51
5609;BME280;2826;51.354;9.588;2023-02-13T03:30:59;100218.78;;;6.53;96.41
5609;BME280;2826;51.354;9.588;2023-02-13T03:33:39;100209.31;;;6.51;96.50
5609;BME280;2826;51.354;9.588;2023-02-13T03:36:16;100203.22;;;6.43;96.47
5609;BME280;2826;51.354;9.588;2023-02-13T03:39:08;100212.78;;;6.51;96.52
5609;BME280;2826;51.354;9.588;2023-02-13T03:41:40;100217.03;;;6.49;96.59
5609;BME280;2826;51.354;9.588;2023-02-13T03:44:13;100214.41;;;6.46;96.77
5609;BME280;2826;51.354;9.588;2023-02-13T03:46:46;100216.13;;;6.44;96.96
5609;BME280;2826;51.354;9.588;2023-02-13T03:49:18;100207.53;;;6.45;96.75
5609;BME280;2826;51.354;9.588;2023-02-13T03:52:06;100211.81;;;6.43;96.73
5609;BME280;2826;51.354;9.588;2023-02-13T03:54:39;100210.09;;;6.42;96.93
5609;BME280;2826;51.354;9.588;2023-02-13T03:57:27;100211.78;;;6.40;96.83
5609;BME280;2826;51.354;9.588;2023-02-13T04:00:15;100218.66;;;6.38;97.00
5609;BME280;2826;51.354;9.588;2023-02-13T04:02:50;100222.06;;;6.38;96.74
5609;BME280;2826;51.354;9.588;2023-02-13T04:05:22;100219.50;;;6.38;96.55
5609;BME280;2826;51.354;9.588;2023-02-13T04:07:50;100219.41;;;6.31;96.93
5609;BME280;2826;51.354;9.588;2023-02-13T04:10:19;100222.00;;;6.31;97.04
5609;BME280;2826;51.354;9.588;2023-02-13T04:12:52;100220.28;;;6.33;97.18
5609;BME280;2826;51.354;9.588;2023-02-13T04:15:27;100218.53;;;6.30;97.17
5609;BME280;2826;51.354;9.588;2023-02-13T04:18:00;100220.25;;;6.28;97.25
5609;BME280;2826;51.354;9.588;2023-02-13T04:20:30;100214.28;;;6.31;97.06
5609;BME280;2826;51.354;9.588;2023-02-13T04:23:03;100215.13;;;6.30;97.12
5609;BME280;2826;51.354;9.588;2023-02-13T04:25:31;100218.53;;;6.28;96.74
5609;BME280;2826;51.354;9.588;2023-02-13T04:27:58;100215.94;;;6.27;97.03
5609;BME280;2826;51.354;9.588;2023-02-13T04:30:24;100216.78;;;6.24;97.31
5609;BME280;2826;51.354;9.588;2023-02-13T04:32:51;100217.69;;;6.30;96.89
5609;BME280;2826;51.354;9.588;2023-02-13T04:35:19;100221.94;;;6.27;96.58
5609;BME280;2826;51.354;9.588;2023-02-13T04:37:46;100214.22;;;6.24;96.85
5609;BME280;2826;51.354;9.588;2023-02-13T04:40:12;100222.75;;;6.20;97.19
5609;BME280;2826;51.354;9.588;2023-02-13T04:42:40;100212.44;;;6.19;97.00
5609;BME280;2826;51.354;9.588;2023-02-13T04:45:08;100220.19;;;6.20;96.75
5609;BME280;2826;51.354;9.588;2023-02-13T04:47:34;100221.03;;;6.21;96.95
5609;BME280;2826;51.354;9.588;2023-02-13T04:50:01;100217.56;;;6.19;97.22
5609;BME280;2826;51.354;9.588;2023-02-13T04:52:28;100218.38;;;6.14;97.32
5609;BME280;2826;51.354;9.588;2023-02-13T04:54:55;100216.66;;;6.13;97.33
5609;BME280;2826;51.354;9.588;2023-02-13T04:57:21;100214.97;;;6.17;97.23
5609;BME280;2826;51.354;9.588;2023-02-13T04:59:49;100214.97;;;6.16;97.20
5609;BME280;2826;51.354;9.588;2023-02-13T05:02:16;100210.63;;;6.13;97.18
5609;BME280;2826;51.354;9.588;2023-02-13T05:04:42;100208.00;;;6.07;97.65
5609;BME280;2826;51.354;9.588;2023-02-13T05:07:09;100211.50;;;6.15;97.03
5609;BME280;2826;51.354;9.588;2023-02-13T05:09:35;100214.91;;;6.11;97.45
5609;BME280;2826;51.354;9.588;2023-02-13T05:12:02;100215.69;;;6.05;97.73
5609;BME280;2826;51.354;9.588;2023-02-13T05:14:29;100213.16;;;6.07;97.27
5609;BME280;2826;51.354;9.588;2023-02-13T05:16:57;100207.06;;;6.03;97.01
5609;BME280;2826;51.354;9.588;2023-02-13T05:19:23;100215.69;;;6.05;96.97
5609;BME280;2826;51.354;9.588;2023-02-13T05:21:50;100159.53;;;5.76;96.52
5609;BME280;2826;51.354;9.588;2023-02-13T05:24:34;100212.28;;;6.06;96.65
5609;BME280;2826;51.354;9.588;2023-02-13T05:27:01;100206.25;;;6.06;96.79
5609;BME280;2826;51.354;9.588;2023-02-13T05:29:28;100212.28;;;6.08;96.58
5609;BME280;2826;51.354;9.588;2023-02-13T05:31:57;100211.41;;;6.04;96.45
5609;BME280;2826;51.354;9.588;2023-02-13T05:34:25;100215.72;;;6.07;96.82
5609;BME280;2826;51.354;9.588;2023-02-13T05:36:53;100208.84;;;6.07;96.81
5609;BME280;2826;51.354;9.588;2023-02-13T05:39:20;100207.16;;;6.08;96.56
5609;BME280;2826;51.354;9.588;2023-02-13T05:41:47;100201.97;;;6.06;97.00
5609;BME280;2826;51.354;9.588;2023-02-13T05:44:14;100202.03;;;6.09;96.81
5609;BME280;2826;51.354;9.588;2023-02-13T05:46:42;100188.09;;;5.98;96.40
5609;BME280;2826;51.354;9.588;2023-02-13T05:49:12;100206.28;;;6.07;96.60
5609;BME280;2826;51.354;9.588;2023-02-13T05:51:38;100201.94;;;6.03;96.97
5609;BME280;2826;51.354;9.588;2023-02-13T05:54:05;100201.09;;;6.04;96.76
5609;BME280;2826;51.354;9.588;2023-02-13T05:56:32;100194.19;;;6.03;97.12
5609;BME280;2826;51.354;9.588;2023-02-13T05:58:59;100200.19;;;6.02;97.14
5609;BME280;2826;51.354;9.588;2023-02-13T06:01:26;100205.38;;;6.04;97.15
5609;BME280;2826;51.354;9.588;2023-02-13T06:03:53;100205.41;;;6.05;97.33
5609;BME280;2826;51.354;9.588;2023-02-13T06:06:20;100203.66;;;6.06;97.34
5609;BME280;2826;51.354;9.588;2023-02-13T06:08:47;100201.97;;;6.06;97.32
5609;BME280;2826;51.354;9.588;2023-02-13T06:11:15;100206.25;;;6.04;97.29
5609;BME280;2826;51.354;9.588;2023-02-13T06:13:42;100207.06;;;6.03;97.30
5609;BME280;2826;51.354;9.588;2023-02-13T06:16:09;100202.72;;;5.97;97.58
5609;BME280;2826;51.354;9.588;2023-02-13T06:18:36;100214.75;;;6.01;97.87
5609;BME280;2826;51.354;9.588;2023-02-13T06:21:04;100212.28;;;6.06;97.72
5609;BME280;2826;51.354;9.588;2023-02-13T06:23:32;100208.81;;;6.06;97.48
5609;BME280;2826;51.354;9.588;2023-02-13T06:26:01;100206.19;;;6.03;97.94
5609;BME280;2826;51.354;9.588;2023-02-13T06:28:28;100211.47;;;6.10;97.66
5609;BME280;2826;51.354;9.588;2023-02-13T06:30:54;100214.00;;;6.07;97.66
5609;BME280;2826;51.354;9.588;2023-02-13T06:33:21;100207.03;;;6.01;97.91
5609;BME280;2826;51.354;9.588;2023-02-13T06:35:48;100213.16;;;6.07;98.04
5609;BME280;2826;51.354;9.588;2023-02-13T06:38:14;100221.72;;;6.07;97.89
5609;BME280;2826;51.354;9.588;2023-02-13T06:40:44;100223.44;;;6.08;97.48
5609;BME280;2826;51.354;9.588;2023-02-13T06:43:11;100226.84;;;6.06;97.69
5609;BME280;2826;51.354;9.588;2023-02-13T06:45:38;100228.56;;;6.04;97.49
5609;BME280;2826;51.354;9.588;2023-02-13T06:48:04;100226.69;;;5.93;98.26
5609;BME280;2826;51.354;9.588;2023-02-13T06:50:31;100227.63;;;6.00;98.17
5609;BME280;2826;51.354;9.588;2023-02-13T06:52:59;100229.34;;;6.01;97.80
5609;BME280;2826;51.354;9.588;2023-02-13T06:55:26;100231.91;;;5.99;97.90
5609;BME280;2826;51.354;9.588;2023-02-13T06:57:54;100232.78;;;6.00;98.09
5609;BME280;2826;51.354;9.588;2023-02-13T07:00:21;100237.09;;;6.01;97.73
5609;BME280;2826;51.354;9.588;2023-02-13T07:02:48;100240.50;;;6.00;97.98
5609;BME280;2826;51.354;9.588;2023-02-13T07:05:15;100234.53;;;6.03;97.87
5609;BME280;2826;51.354;9.588;2023-02-13T07:07:42;100243.22;;;6.08;97.70
5609;BME280;2826;51.354;9.588;2023-02-13T07:10:11;100248.34;;;6.08;97.55
5609;BME280;2826;51.354;9.588;2023-02-13T07:12:38;100247.47;;;6.06;97.66
5609;BME280;2826;51.354;9.588;2023-02-13T07:15:07;100244.94;;;6.09;97.72
5609;BME280;2826;51.354;9.588;2023-02-13T07:17:33;100256.94;;;6.08;97.54
5609;BME280;2826;51.354;9.588;2023-02-13T07:20:01;100243.88;;;5.96;97.94
5609;BME280;2826;51.354;9.588;2023-02-13T07:22:29;100263.00;;;6.12;97.77
5609;BME280;2826;51.354;9.588;2023-02-13T07:24:57;100264.75;;;6.14;97.69
5609;BME280;2826;51.354;9.588;2023-02-13T07:27:24;100237.94;;;6.01;97.55
5609;BME280;2826;51.354;9.588;2023-02-13T07:29:54;100264.81;;;6.21;97.35
5609;BME280;2826;51.354;9.588;2023-02-13T07:32:23;100263.13;;;6.21;97.46
5609;BME280;2826;51.354;9.588;2023-02-13T07:34:50;100264.84;;;6.22;97.62
5609;BME280;2826;51.354;9.588;2023-02-13T07:37:17;100273.47;;;6.24;97.25
5609;BME280;2826;51.354;9.588;2023-02-13T07:39:44;100263.16;;;6.24;97.36
5609;BME280;2826;51.354;9.588;2023-02-13T07:42:10;100270.03;;;6.25;97.64
5609;BME280;2826;51.354;9.588;2023-02-13T07:44:37;100263.97;;;6.22;97.43
5609;BME280;2826;51.354;9.588;2023-02-13T07:47:04;100268.31;;;6.26;97.75
5609;BME280;2826;51.354;9.588;2023-02-13T07:49:32;100267.41;;;6.22;97.55
5609;BME280;2826;51.354;9.588;2023-02-13T07:51:58;100264.84;;;6.22;97.53
5609;BME280;2826;51.354;9.588;2023-02-13T07:54:25;100257.13;;;6.24;97.12
5609;BME280;2826;51.354;9.588;2023-02-13T07:56:51;100268.28;;;6.21;97.13
5609;BME280;2826;51.354;9.588;2023-02-13T07:59:18;100264.06;;;6.30;96.54
5609;BME280;2826;51.354;9.588;2023-02-13T08:01:44;100267.53;;;6.32;96.30
5609;BME280;2826;51.354;9.588;2023-02-13T08:04:12;100262.31;;;6.28;96.53
5609;BME280;2826;51.354;9.588;2023-02-13T08:06:41;100239.94;;;6.23;96.45
5609;BME280;2826;51.354;9.588;2023-02-13T08:09:16;100261.50;;;6.33;96.24
5609;BME280;2826;51.354;9.588;2023-02-13T08:12:01;100269.31;;;6.37;96.20
5609;BME280;2826;51.354;9.588;2023-02-13T08:14:27;100263.31;;;6.40;95.88
5609;BME280;2826;51.354;9.588;2023-02-13T08:16:54;100261.59;;;6.39;95.97
5609;BME280;2826;51.354;9.588;2023-02-13T08:19:20;100256.44;;;6.39;95.99
5609;BME280;2826;51.354;9.588;2023-02-13T08:21:48;100260.78;;;6.43;96.04
5609;BME280;2826;51.354;9.588;2023-02-13T08:24:15;100266.84;;;6.48;96.24
5609;BME280;2826;51.354;9.588;2023-02-13T08:26:42;100264.34;;;6.54;96.13
5609;BME280;2826;51.354;9.588;2023-02-13T08:29:08;100260.97;;;6.62;95.73
5609;BME280;2826;51.354;9.588;2023-02-13T08:31:35;100265.31;;;6.66;95.47
5609;BME280;2826;51.354;9.588;2023-02-13T08:34:02;100260.22;;;6.69;95.57
5609;BME280;2826;51.354;9.588;2023-02-13T08:36:29;100267.16;;;6.78;95.46
5609;BME280;2826;51.354;9.588;2023-02-13T08:38:57;100255.13;;;6.78;95.43
5609;BME280;2826;51.354;9.588;2023-02-13T08:41:23;100257.81;;;6.88;94.84
5609;BME280;2826;51.354;9.588;2023-02-13T08:43:52;100256.06;;;6.85;94.48
5609;BME280;2826;51.354;9.588;2023-02-13T08:46:19;100256.94;;;6.89;94.00
5609;BME280;2826;51.354;9.588;2023-02-13T08:48:46;100250.16;;;6.97;93.74
5609;BME280;2826;51.354;9.588;2023-02-13T08:51:13;100255.31;;;7.02;93.12
5609;BME280;2826;51.354;9.588;2023-02-13T08:53:40;100231.16;;;6.89;93.67
5609;BME280;2826;51.354;9.588;2023-02-13T08:56:09;100264.03;;;7.13;93.14
5609;BME280;2826;51.354;9.588;2023-02-13T08:58:37;100263.19;;;7.16;92.13
5609;BME280;2826;51.354;9.588;2023-02-13T09:01:06;100226.09;;;7.01;92.18
5609;BME280;2826;51.354;9.588;2023-02-13T09:03:33;100263.25;;;7.24;91.60
5609;BME280;2826;51.354;9.588;2023-02-13T09:06:00;100259.81;;;7.25;91.05
5609;BME280;2826;51.354;9.588;2023-02-13T09:08:27;100271.03;;;7.28;90.97
5609;BME280;2826;51.354;9.588;2023-02-13T09:10:55;100263.28;;;7.27;90.73
5609;BME280;2826;51.354;9.588;2023-02-13T09:13:24;100266.75;;;7.30;90.68
5609;BME280;2826;51.354;9.588;2023-02-13T09:15:51;100265.94;;;7.38;90.83
5609;BME280;2826;51.354;9.588;2023-02-13T09:18:18;100267.72;;;7.47;90.13
5609;BME280;2826;51.354;9.588;2023-02-13T09:21:10;100260.00;;;7.51;89.90
5609;BME280;2826;51.354;9.588;2023-02-13T09:23:38;100254.81;;;7.48;89.15
5609;BME280;2826;51.354;9.588;2023-02-13T09:26:08;100262.66;;;7.61;88.61
5609;BME280;2826;51.354;9.588;2023-02-13T09:28:36;100273.03;;;7.65;88.52
5609;BME280;2826;51.354;9.588;2023-02-13T09:31:04;100257.53;;;7.70;88.26
5609;BME280;2826;51.354;9.588;2023-02-13T09:33:31;100269.69;;;7.87;88.41
5609;BME280;2826;51.354;9.588;2023-02-13T09:35:58;100268.84;;;7.94;87.80
5609;BME280;2826;51.354;9.588;2023-02-13T09:38:24;100264.59;;;8.02;87.86
5609;BME280;2826;51.354;9.588;2023-02-13T09:40:53;100243.03;;;7.97;86.65
5609;BME280;2826;51.354;9.588;2023-02-13T09:43:27;100267.25;;;8.16;86.62
5609;BME280;2826;51.354;9.588;2023-02-13T09:45:59;100263.81;;;8.25;86.54
5609;BME280;2826;51.354;9.588;2023-02-13T09:48:32;100267.31;;;8.30;85.82
5609;BME280;2826;51.354;9.588;2023-02-13T09:51:00;100267.34;;;8.44;86.34
5609;BME280;2826;51.354;9.588;2023-02-13T09:53:28;100267.41;;;8.55;85.15
5609;BME280;2826;51.354;9.588;2023-02-13T09:56:05;100262.25;;;8.69;84.27
5609;BME280;2826;51.354;9.588;2023-02-13T09:58:40;100270.03;;;8.77;83.72
5609;BME280;2826;51.354;9.588;2023-02-13T10:01:17;100265.72;;;8.85;83.77
5609;BME280;2826;51.354;9.588;2023-02-13T10:03:48;100263.16;;;8.93;82.83
5609;BME280;2826;51.354;9.588;2023-02-13T10:06:22;100275.22;;;8.97;82.09
5609;BME280;2826;51.354;9.588;2023-02-13T10:09:06;100266.59;;;9.00;81.65
5609;BME280;2826;51.354;9.588;2023-02-13T10:11:48;100267.47;;;8.96;81.04
5609;BME280;2826;51.354;9.588;2023-02-13T10:14:22;100272.63;;;8.94;80.89
5609;BME280;2826;51.354;9.588;2023-02-13T10:16:54;100271.75;;;8.87;80.83
5609;BME280;2826;51.354;9.588;2023-02-13T10:19:33;100267.47;;;8.80;80.49
5609;BME280;2826;51.354;9.588;2023-02-13T10:22:04;100266.59;;;8.83;80.58
5609;BME280;2826;51.354;9.588;2023-02-13T10:24:35;100270.03;;;8.94;80.79
5609;BME280;2826;51.354;9.588;2023-02-13T10:27:11;100260.59;;;8.99;80.32
5609;BME280;2826;51.354;9.588;2023-02-13T10:29:44;100264.88;;;9.14;80.83
5609;BME280;2826;51.354;9.588;2023-02-13T10:32:42;100257.97;;;9.32;79.95
5609;BME280;2826;51.354;9.588;2023-02-13T10:35:20;100254.53;;;9.44;79.19
5609;BME280;2826;51.354;9.588;2023-02-13T10:37:53;100257.94;;;9.56;78.56
5609;BME280;2826;51.354;9.588;2023-02-13T10:40:23;100213.09;;;9.30;77.25
5609;BME280;2826;51.354;9.588;2023-02-13T10:43:01;100254.47;;;9.58;77.28
5609;BME280;2826;51.354;9.588;2023-02-13T10:45:43;100250.16;;;9.68;77.27
5609;BME280;2826;51.354;9.588;2023-02-13T10:48:26;100258.81;;;9.69;76.40
5609;BME280;2826;51.354;9.588;2023-02-13T10:51:01;100252.75;;;9.66;75.89
5609;BME280;2826;51.354;9.588;2023-02-13T10:53:42;100243.25;;;9.67;75.84
5609;BME280;2826;51.354;9.588;2023-02-13T10:56:22;100248.41;;;9.72;75.87
5609;BME280;2826;51.354;9.588;2023-02-13T10:59:06;100228.50;;;9.89;75.14
5609;BME280;2826;51.354;9.588;2023-02-13T11:01:39;100231.03;;;9.99;74.31
5609;BME280;2826;51.354;9.588;2023-02-13T11:04:12;100231.88;;;10.05;73.48
5609;BME280;2826;51.354;9.588;2023-02-13T11:06:42;100228.38;;;10.17;72.96
5609;BME280;2826;51.354;9.588;2023-02-13T11:09:09;100225.75;;;10.27;72.50
5609;BME280;2826;51.354;9.588;2023-02-13T11:11:40;100217.03;;;10.45;72.51
5609;BME280;2826;51.354;9.588;2023-02-13T11:14:13;100215.19;;;10.59;71.93
5609;BME280;2826;51.354;9.588;2023-02-13T11:16:46;100215.09;;;10.75;71.34
5609;BME280;2826;51.354;9.588;2023-02-13T11:19:17;100214.16;;;10.84;71.35
5609;BME280;2826;51.354;9.588;2023-02-13T11:21:53;100194.25;;;10.84;70.24
5609;BME280;2826;51.354;9.588;2023-02-13T11:24:21;100220.84;;;11.13;70.96
5609;BME280;2826;51.354;9.588;2023-02-13T11:26:55;100199.19;;;11.16;69.59
5609;BME280;2826;51.354;9.588;2023-02-13T11:29:25;100212.91;;;11.29;69.02
5609;BME280;2826;51.354;9.588;2023-02-13T11:32:17;100196.69;;;11.06;67.55
5609;BME280;2826;51.354;9.588;2023-02-13T11:34:46;100206.91;;;11.23;68.35
5609;BME280;2826;51.354;9.588;2023-02-13T11:37:26;100202.47;;;11.36;67.41
5609;BME280;2826;51.354;9.588;2023-02-13T11:39:55;100202.38;;;11.44;67.71
5609;BME280;2826;51.354;9.588;2023-02-13T11:42:28;100203.16;;;11.53;66.53
5609;BME280;2826;51.354;9.588;2023-02-13T11:45:02;100203.09;;;11.56;66.02
5609;BME280;2826;51.354;9.588;2023-02-13T11:47:36;100198.78;;;11.56;65.25
5609;BME280;2826;51.354;9.588;2023-02-13T11:50:21;100194.25;;;11.72;65.96
5609;BME280;2826;51.354;9.588;2023-02-13T11:52:55;100188.16;;;11.76;66.00
5609;BME280;2826;51.354;9.588;2023-02-13T11:55:42;100197.56;;;11.87;64.73
5609;BME280;2826;51.354;9.588;2023-02-13T11:58:22;100200.09;;;11.92;64.38
5609;BME280;2826;51.354;9.588;2023-02-13T12:01:20;100187.09;;;11.93;63.11
5609;BME280;2826;51.354;9.588;2023-02-13T12:04:00;100197.31;;;12.09;62.72
5609;BME280;2826;51.354;9.588;2023-02-13T12:06:28;100181.75;;;12.04;61.99
5609;BME280;2826;51.354;9.588;2023-02-13T12:08:55;100190.38;;;12.11;62.12
5609;BME280;2826;51.354;9.588;2023-02-13T12:11:27;100184.16;;;12.21;62.88
5609;BME280;2826;51.354;9.588;2023-02-13T12:13:59;100185.81;;;12.27;62.06
5609;BME280;2826;51.354;9.588;2023-02-13T12:16:29;100183.09;;;12.33;62.63
5609;BME280;2826;51.354;9.588;2023-02-13T12:19:02;100188.13;;;12.46;61.85
5609;BME280;2826;51.354;9.588;2023-02-13T12:21:52;100179.47;;;12.44;60.96
5609;BME280;2826;51.354;9.588;2023-02-13T12:24:36;100175.88;;;12.54;61.27
5609;BME280;2826;51.354;9.588;2023-02-13T12:27:11;100167.06;;;12.61;61.20
5609;BME280;2826;51.354;9.588;2023-02-13T12:29:58;100167.75;;;12.73;60.92
5609;BME280;2826;51.354;9.588;2023-02-13T12:32:34;100164.13;;;12.83;59.93
5609;BME280;2826;51.354;9.588;2023-02-13T12:35:20;100155.38;;;12.87;59.55
5609;BME280;2826;51.354;9.588;2023-02-13T12:38:00;100151.03;;;12.88;59.43
5609;BME280;2826;51.354;9.588;2023-02-13T12:40:38;100142.13;;;13.01;59.51
5609;BME280;2826;51.354;9.588;2023-02-13T12:43:33;100150.69;;;13.08;59.09
5609;BME280;2826;51.354;9.588;2023-02-13T12:46:06;100112.63;;;12.99;58.06
5609;BME280;2826;51.354;9.588;2023-02-13T12:48:42;100133.72;;;13.32;57.73
5609;BME280;2826;51.354;9.588;2023-02-13T12:51:22;100131.09;;;13.34;57.75
5609;BME280;2826;51.354;9.588;2023-02-13T12:54:03;100123.84;;;13.52;57.18
5609;BME280;2826;51.354;9.588;2023-02-13T12:56:45;100113.66;;;13.36;55.86
5609;BME280;2826;51.354;9.588;2023-02-13T12:59:19;100123.00;;;13.46;56.99
5609;BME280;2826;51.354;9.588;2023-02-13T13:02:00;100111.63;;;13.54;57.85
5609;BME280;2826;51.354;9.588;2023-02-13T13:04:42;100110.63;;;13.59;57.56
5609;BME280;2826;51.354;9.588;2023-02-13T13:07:26;100114.03;;;13.63;56.29
5609;BME280;2826;51.354;9.588;2023-02-13T13:10:10;100110.59;;;13.63;54.70
5609;BME280;2826;51.354;9.588;2023-02-13T13:12:48;100112.88;;;13.77;56.73
5609;BME280;2826;51.354;9.588;2023-02-13T13:15:26;100098.09;;;13.77;56.01
5609;BME280;2826;51.354;9.588;2023-02-13T13:18:01;100110.09;;;13.84;55.41
5609;BME280;2826;51.354;9.588;2023-02-13T13:21:01;100109.91;;;13.94;55.26
5609;BME280;2826;51.354;9.588;2023-02-13T13:23:40;100103.44;;;14.10;55.11
5609;BME280;2826;51.354;9.588;2023-02-13T13:26:18;100106.78;;;14.16;54.33
5609;BME280;2826;51.354;9.588;2023-02-13T13:28:49;100107.66;;;14.16;53.99
5609;BME280;2826;51.354;9.588;2023-02-13T13:31:19;100109.47;;;14.14;53.10
5609;BME280;2826;51.354;9.588;2023-02-13T13:33:48;100101.72;;;14.09;53.93
5609;BME280;2826;51.354;9.588;2023-02-13T13:36:20;100100.69;;;14.18;54.79
5609;BME280;2826;51.354;9.588;2023-02-13T13:38:56;100099.69;;;14.22;53.48
5609;BME280;2826;51.354;9.588;2023-02-13T13:41:31;100091.81;;;14.24;54.07
5609;BME280;2826;51.354;9.588;2023-02-13T13:44:08;100083.75;;;14.33;54.65
5609;BME280;2826;51.354;9.588;2023-02-13T13:46:49;100093.16;;;14.41;52.94